Estación Meteorológica Peña el Pijo (Robertgarden) [ 02/02/23 20:16:42 CET ]

Fecha Hora Presion(HPa) Temp (°C) Humedad % Rocio (°C) Viento ( m/s) Direccion Lluvia 1Hora(mm) Lluvia 24H(mm) LLuvia Total(mm)
2012-Jul-07 01:01:16 1010.500 14.9 35 -0.5         167.83
2012-Jul-07 02:01:13 1010.600 13.2 38 -0.9         167.83
2012-Jul-07 03:03:14 1010.300 12.2 40 -1.0         167.83
2012-Jul-07 04:01:13 1010.000 11.5 42 -1.0         167.83
2012-Jul-07 05:01:14 1009.800 10.9 44 -0.9         167.83
2012-Jul-07 06:01:13 1009.800 9.9 49 -0.3         167.83
2012-Jul-07 07:01:13 1009.900 9.3 52 -0.1         167.83
2012-Jul-07 08:01:14 1010.200 11.3 55 2.5         167.83
2012-Jul-07 09:01:19 1010.100 18.9 43 6.0         167.83
2012-Jul-07 10:01:17 1009.900 25.5 31 7.1         167.83
2012-Jul-07 11:01:13 1009.500 30.6 20 5.1         167.83
2012-Jul-07 12:01:11 1009.600 32.8 15 2.1         167.83
2012-Jul-07 13:01:14 1009.200 34.9 13 1.8 0.9 SSW     167.83
2012-Jul-07 14:01:18 1009.000 36.1 12 1.7 0.7 WNW     167.83
2012-Jul-07 15:01:19 1008.500 36.9 10 0.3         167.83
2012-Jul-07 16:01:19 1008.200 36.7 10 0.2         167.83
2012-Jul-07 17:01:17 1008.200 38.1 10 1.3         167.83
2012-Jul-07 18:01:17 1008.000 37.1 10 0.5 3.7 NW     167.83
2012-Jul-07 19:01:13 1007.900 34.8 12 0.7         167.83
2012-Jul-07 20:01:15 1008.100 32.6 14 1.0         167.83
2012-Jul-07 21:01:14 1008.600 29.6 17 1.4         167.83
2012-Jul-07 22:01:12 1009.200 24.9 25 3.3         167.83
2012-Jul-07 23:01:13 1009.900 20.9 33 3.9         167.83

Temperatura Máxima:38°    Temperatura Mínima:
Presión Máxima:1010.600 Hpa    Presión Mínima:1007.900 Hpa


Volver